Scot Bremen — 9HA4091 — position and weather

sailwx.info

Track history (hours):
 
Tides and Currents Weather Stations Pressure Air Temp Water Temp Dewpoint Dewpoint Depression Visibility Wind Speed Wind Dir Waves Ship Positions

Scot Bremen

Last reported at 2018-Jun-18 05:47 UTC. Time now 2018-Jun-18 13:20 UTC.
Position N 30°34' W 014°51'.

Length 117 m; draft 8.1 m.

Type: Ship. MMSI: 249086000.

Date/timePositionNaut miles runAvg speedWind from/ knotsBaromVisibWave heightAir tempDewpointWater temp
2018-Jun-18 05:47N 30°34' W 014°51'511.1
2018-Jun-18 05:21N 30°30' W 014°51'411.1
2018-Jun-18 04:58N 30°25' W 014°51'511.1
2018-Jun-18 04:30N 30°20' W 014°51'510.9
2018-Jun-18 04:00N 30°15' W 014°51'810.7
2018-Jun-18 03:14N 30°06' W 014°51'210.5
2018-Jun-18 03:00N 30°04' W 014°51'510.3
2018-Jun-18 02:30N 29°59' W 014°51'510.2
2018-Jun-18 01:58N 29°53' W 014°51'910.5
2018-Jun-18 01:08N 29°45' W 014°50'410.4
2018-Jun-18 00:47N 29°41' W 014°50'510.4
2018-Jun-18 00:16N 29°36' W 014°50'410.4
2018-Jun-17 23:52N 29°32' W 014°50'410.4
2018-Jun-17 23:29N 29°28' W 014°49'9 9.7
2018-Jun-17 22:36N 29°19' W 014°50'110.5
2018-Jun-17 22:30N 29°18' W 014°50'510.5
2018-Jun-17 22:00N 29°13' W 014°50'510.5
2018-Jun-17 21:30N 29°07' W 014°50'710.7
2018-Jun-17 20:49N 29°00' W 014°50'410.5
2018-Jun-17 20:27N 28°57' W 014°52'510.5
2018-Jun-17 20:00N 28°53' W 014°55'510.3
2018-Jun-17 19:30N 28°49' W 014°58'510.7
2018-Jun-17 19:00N 28°44' W 015°02'510.6
2018-Jun-17 18:30N 28°40' W 015°05'510.9
2018-Jun-17 18:00N 28°36' W 015°09'510.8
2018-Jun-17 17:30N 28°31' W 015°13'510.7
2018-Jun-17 17:00N 28°27' W 015°16'510.6
2018-Jun-17 16:30N 28°22' W 015°18'510.8
2018-Jun-17 16:00N 28°17' W 015°20'510.7
2018-Jun-17 15:30N 28°12' W 015°22'3 5.5
2018-Jun-17 15:00N 28°09' W 015°24'0 0.1
2018-Jun-17 14:28N 28°10' W 015°24'0 0.0
2018-Jun-17 14:00N 28°10' W 015°24'0 0.0
2018-Jun-17 13:30N 28°10' W 015°24'0 0.0
2018-Jun-17 13:01N 28°10' W 015°24'0 0.0
2018-Jun-17 12:31N 28°10' W 015°24'0 0.0
2018-Jun-17 12:01N 28°10' W 015°24'0 0.0
2018-Jun-17 11:31N 28°10' W 015°24'0 0.0
2018-Jun-17 11:01N 28°10' W 015°24'1 1.9
2018-Jun-17 10:30N 28°09' W 015°24'1 2.6
2018-Jun-17 10:01N 28°08' W 015°23'4 7.0
2018-Jun-17 09:31N 28°06' W 015°20'5 9.6
2018-Jun-17 09:01N 28°02' W 015°16'5 9.6
2018-Jun-17 08:31N 27°57' W 015°16'5 9.0
2018-Jun-17 08:00N 27°53' W 015°16'4 8.7
2018-Jun-17 07:31N 27°48' W 015°16'5 9.1
2018-Jun-17 07:01N 27°44' W 015°17'  
Track history (hours):
 
Tides and Currents Weather Stations Pressure Air Temp Water Temp Dewpoint Dewpoint Depression Visibility Wind Speed Wind Dir Waves Ship Positions

Scot Bremen

Last reported at 2018-Jun-18 05:47 UTC. Time now 2018-Jun-18 13:20 UTC.
Position N 30°34' W 014°51'.

Length 117 m; draft 8.1 m.

Type: Ship. MMSI: 249086000.

Date/timePositionNaut miles runAvg speedWind from/ knotsBaromVisibWave heightAir tempDewpointWater temp
2018-Jun-18 05:47N 30°34' W 014°51'511.1
2018-Jun-18 05:21N 30°30' W 014°51'411.1
2018-Jun-18 04:58N 30°25' W 014°51'511.1
2018-Jun-18 04:30N 30°20' W 014°51'510.9
2018-Jun-18 04:00N 30°15' W 014°51'810.7
2018-Jun-18 03:14N 30°06' W 014°51'210.5
2018-Jun-18 03:00N 30°04' W 014°51'510.3
2018-Jun-18 02:30N 29°59' W 014°51'510.2
2018-Jun-18 01:58N 29°53' W 014°51'910.5
2018-Jun-18 01:08N 29°45' W 014°50'410.4
2018-Jun-18 00:47N 29°41' W 014°50'510.4
2018-Jun-18 00:16N 29°36' W 014°50'410.4
2018-Jun-17 23:52N 29°32' W 014°50'410.4
2018-Jun-17 23:29N 29°28' W 014°49'9 9.7
2018-Jun-17 22:36N 29°19' W 014°50'110.5
2018-Jun-17 22:30N 29°18' W 014°50'510.5
2018-Jun-17 22:00N 29°13' W 014°50'510.5
2018-Jun-17 21:30N 29°07' W 014°50'710.7
2018-Jun-17 20:49N 29°00' W 014°50'410.5
2018-Jun-17 20:27N 28°57' W 014°52'510.5
2018-Jun-17 20:00N 28°53' W 014°55'510.3
2018-Jun-17 19:30N 28°49' W 014°58'510.7
2018-Jun-17 19:00N 28°44' W 015°02'510.6
2018-Jun-17 18:30N 28°40' W 015°05'510.9
2018-Jun-17 18:00N 28°36' W 015°09'510.8
2018-Jun-17 17:30N 28°31' W 015°13'510.7
2018-Jun-17 17:00N 28°27' W 015°16'510.6
2018-Jun-17 16:30N 28°22' W 015°18'510.8
2018-Jun-17 16:00N 28°17' W 015°20'510.7
2018-Jun-17 15:30N 28°12' W 015°22'3 5.5
2018-Jun-17 15:00N 28°09' W 015°24'0 0.1
2018-Jun-17 14:28N 28°10' W 015°24'0 0.0
2018-Jun-17 14:00N 28°10' W 015°24'0 0.0
2018-Jun-17 13:30N 28°10' W 015°24'0 0.0
2018-Jun-17 13:01N 28°10' W 015°24'0 0.0
2018-Jun-17 12:31N 28°10' W 015°24'0 0.0
2018-Jun-17 12:01N 28°10' W 015°24'0 0.0
2018-Jun-17 11:31N 28°10' W 015°24'0 0.0
2018-Jun-17 11:01N 28°10' W 015°24'1 1.9
2018-Jun-17 10:30N 28°09' W 015°24'1 2.6
2018-Jun-17 10:01N 28°08' W 015°23'4 7.0
2018-Jun-17 09:31N 28°06' W 015°20'5 9.6
2018-Jun-17 09:01N 28°02' W 015°16'5 9.6
2018-Jun-17 08:31N 27°57' W 015°16'5 9.0
2018-Jun-17 08:00N 27°53' W 015°16'4 8.7
2018-Jun-17 07:31N 27°48' W 015°16'5 9.1
2018-Jun-17 07:01N 27°44' W 015°17'  

Dump ship's entire track history